Time;durP1;ratioP1;P1;durP2;ratioP2;P2;SDS_P1;SDS_P2;PMS_P1;PMS_P2;Temp;Humidity;BMP_temperature;BMP_pressure;BME280_temperature;BME280_humidity;BME280_pressure;Samples;Min_cycle;Max_cycle;Signal;HPM_P1;HPM_P2
2023/05/30 00:00:29;;;;;;;5.90;3.63;;;;;;;;;;5026695;28;20435;-68
2023/05/30 00:02:55;;;;;;;3.20;3.07;;;;;;;;;;5026962;28;21012;-68
2023/05/30 00:05:21;;;;;;;3.10;2.90;;;;;;;;;;5027293;28;20873;-69
2023/05/30 00:07:47;;;;;;;2.70;2.60;;;;;;;;;;5026361;28;20534;-69
2023/05/30 00:10:13;;;;;;;3.90;3.47;;;;;;;;;;5026470;28;20510;-68
2023/05/30 00:12:41;;;;;;;2.47;2.47;;;;;;;;;;5026815;28;20431;-69
2023/05/30 00:15:07;;;;;;;4.07;3.77;;;;;;;;;;5026590;28;20450;-68
2023/05/30 00:17:35;;;;;;;2.77;2.67;;;;;;;;;;5026503;28;20447;-68
2023/05/30 00:20:02;;;;;;;4.03;3.00;;;;;;;;;;5026327;28;20447;-68
2023/05/30 00:22:28;;;;;;;2.80;2.70;;;;;;;;;;5026510;28;20431;-68
2023/05/30 00:24:59;;;;;;;8.00;2.47;;;;;;;;;;5026238;28;20510;-68
2023/05/30 00:27:25;;;;;;;6.47;2.70;;;;;;;;;;5024668;28;20522;-68
2023/05/30 00:29:51;;;;;;;3.93;2.97;;;;;;;;;;5026424;28;20982;-68
2023/05/30 00:32:17;;;;;;;5.13;2.90;;;;;;;;;;5026249;28;20427;-68
2023/05/30 00:34:43;;;;;;;3.50;2.97;;;;;;;;;;5026163;28;20455;-68
2023/05/30 00:37:09;;;;;;;5.33;2.50;;;;;;;;;;5026457;28;20518;-68
2023/05/30 00:39:35;;;;;;;3.40;3.20;;;;;;;;;;5042094;28;20581;-68
2023/05/30 00:42:02;;;;;;;5.07;4.63;;;;;;;;;;5026367;28;21818;-68
2023/05/30 00:44:28;;;;;;;2.50;2.40;;;;;;;;;;5025862;28;20443;-68
2023/05/30 00:46:54;;;;;;;4.17;3.70;;;;;;;;;;5026512;28;20490;-68
2023/05/30 00:49:20;;;;;;;2.93;2.80;;;;;;;;;;5025784;28;21710;-68
2023/05/30 00:51:46;;;;;;;2.97;2.87;;;;;;;;;;5041641;28;20578;-68
2023/05/30 00:54:12;;;;;;;7.17;3.03;;;;;;;;;;5025909;28;21128;-68
2023/05/30 00:56:38;;;;;;;2.50;2.40;;;;;;;;;;5026346;28;20415;-68
2023/05/30 00:59:05;;;;;;;4.50;3.33;;;;;;;;;;5026118;28;20484;-68
2023/05/30 01:01:32;;;;;;;4.97;3.60;;;;;;;;;;5029491;28;20439;-68
2023/05/30 01:03:58;;;;;;;3.00;2.90;;;;;;;;;;5025199;28;20430;-68
2023/05/30 01:06:27;;;;;;;2.20;2.07;;;;;;;;;;5026012;28;20415;-68
2023/05/30 01:08:54;;;;;;;3.97;2.87;;;;;;;;;;5025244;28;20486;-68
2023/05/30 01:11:29;;;;;;;3.50;3.20;;;;;;;;;;5026450;28;20522;-69
2023/05/30 01:14:14;;;;;;;2.63;2.53;;;;;;;;;;5025626;28;20419;-68
2023/05/30 01:16:43;;;;;;;4.47;3.70;;;;;;;;;;5025582;28;20458;-69
2023/05/30 01:19:19;;;;;;;3.03;2.83;;;;;;;;;;5025297;28;20439;-68
2023/05/30 01:21:45;;;;;;;3.80;3.60;;;;;;;;;;5025973;28;20423;-68
2023/05/30 01:24:21;;;;;;;6.40;3.20;;;;;;;;;;5025046;28;20462;-68
2023/05/30 01:26:57;;;;;;;3.33;2.90;;;;;;;;;;5025655;28;20451;-68
2023/05/30 01:29:23;;;;;;;3.43;3.13;;;;;;;;;;5025162;28;20486;-68
2023/05/30 01:31:50;;;;;;;5.70;2.57;;;;;;;;;;5025810;28;20447;-68
2023/05/30 01:34:16;;;;;;;3.43;3.23;;;;;;;;;;5024151;28;20431;-68
2023/05/30 01:36:42;;;;;;;3.13;3.03;;;;;;;;;;5025329;28;20937;-68
2023/05/30 01:39:09;;;;;;;2.83;2.67;;;;;;;;;;5025175;28;21006;-68
2023/05/30 01:41:35;;;;;;;4.00;3.00;;;;;;;;;;5024990;28;20977;-68
2023/05/30 01:44:03;;;;;;;3.50;3.20;;;;;;;;;;5024513;28;20443;-68
2023/05/30 01:46:33;;;;;;;3.03;2.93;;;;;;;;;;5024013;28;20232;-68
2023/05/30 01:49:13;;;;;;;3.27;3.07;;;;;;;;;;5024828;28;20525;-69
2023/05/30 01:51:42;;;;;;;3.50;3.20;;;;;;;;;;5025286;28;20435;-69
2023/05/30 01:54:09;;;;;;;2.90;2.80;;;;;;;;;;5024665;28;20435;-68
2023/05/30 01:56:36;;;;;;;3.30;2.80;;;;;;;;;;5024320;28;20458;-68
2023/05/30 01:59:03;;;;;;;2.40;2.30;;;;;;;;;;5040579;28;20442;-68
2023/05/30 02:01:29;;;;;;;3.47;3.00;;;;;;;;;;5039876;28;20451;-68
2023/05/30 02:03:56;;;;;;;7.43;2.80;;;;;;;;;;5024545;28;20420;-68
2023/05/30 02:06:23;;;;;;;3.33;3.17;;;;;;;;;;5027052;28;20451;-69
2023/05/30 02:08:49;;;;;;;3.50;3.17;;;;;;;;;;5024338;28;20867;-68
2023/05/30 02:11:15;;;;;;;2.63;2.50;;;;;;;;;;5024481;28;20431;-68
2023/05/30 02:13:41;;;;;;;3.20;3.00;;;;;;;;;;5024446;28;20415;-68
2023/05/30 02:16:07;;;;;;;2.87;2.77;;;;;;;;;;5023828;28;20451;-68
2023/05/30 02:18:34;;;;;;;4.90;3.47;;;;;;;;;;5039375;28;20985;-68
2023/05/30 02:21:00;;;;;;;3.90;3.13;;;;;;;;;;5024163;28;20457;-68
2023/05/30 02:23:26;;;;;;;3.13;2.90;;;;;;;;;;5024301;28;20793;-68
2023/05/30 02:25:52;;;;;;;2.93;2.73;;;;;;;;;;5024080;28;20418;-68
2023/05/30 02:28:18;;;;;;;4.47;3.33;;;;;;;;;;5021898;28;20497;-68
2023/05/30 02:30:44;;;;;;;3.00;2.87;;;;;;;;;;5023838;28;20534;-68
2023/05/30 02:33:10;;;;;;;5.23;3.00;;;;;;;;;;5021524;28;20958;-69
2023/05/30 02:35:36;;;;;;;5.00;3.40;;;;;;;;;;5021522;28;20830;-68
2023/05/30 02:38:02;;;;;;;3.43;3.20;;;;;;;;;;5022489;28;20445;-68
2023/05/30 02:40:28;;;;;;;2.73;2.63;;;;;;;;;;5023944;28;20471;-69
2023/05/30 02:42:54;;;;;;;5.50;3.10;;;;;;;;;;5024219;28;20435;-68
2023/05/30 02:45:20;;;;;;;3.17;3.07;;;;;;;;;;5023609;28;20438;-68
2023/05/30 02:47:46;;;;;;;3.10;2.60;;;;;;;;;;5023703;28;20997;-68
2023/05/30 02:50:12;;;;;;;6.80;3.73;;;;;;;;;;5023540;28;20447;-68
2023/05/30 02:52:38;;;;;;;3.33;3.23;;;;;;;;;;5023807;28;20431;-68
2023/05/30 02:55:04;;;;;;;3.60;2.97;;;;;;;;;;5038393;28;20978;-68
2023/05/30 02:57:32;;;;;;;6.60;2.73;;;;;;;;;;5021881;28;20428;-69
2023/05/30 02:59:58;;;;;;;4.30;3.50;;;;;;;;;;5039045;28;20494;-68
2023/05/30 03:02:24;;;;;;;2.63;2.50;;;;;;;;;;5023489;28;20427;-69
2023/05/30 03:04:50;;;;;;;5.77;3.60;;;;;;;;;;5023384;28;20513;-69
2023/05/30 03:07:19;;;;;;;3.00;2.80;;;;;;;;;;5023224;28;21810;-69
2023/05/30 03:09:45;;;;;;;3.97;3.10;;;;;;;;;;5022998;28;21014;-68
2023/05/30 03:12:11;;;;;;;4.83;2.87;;;;;;;;;;5023718;28;20966;-68
2023/05/30 03:14:37;;;;;;;3.10;3.00;;;;;;;;;;5023252;28;20482;-68
2023/05/30 03:17:03;;;;;;;3.07;2.47;;;;;;;;;;5023365;28;20534;-68
2023/05/30 03:19:29;;;;;;;3.27;3.07;;;;;;;;;;5023182;28;20932;-69
2023/05/30 03:21:56;;;;;;;2.73;2.63;;;;;;;;;;5023325;28;20520;-69
2023/05/30 03:24:22;;;;;;;4.70;3.00;;;;;;;;;;5023201;28;21039;-69
2023/05/30 03:26:49;;;;;;;5.53;2.83;;;;;;;;;;5024330;28;21835;-69
2023/05/30 03:29:15;;;;;;;8.00;2.83;;;;;;;;;;5023555;28;20601;-70
2023/05/30 03:31:41;;;;;;;5.00;3.00;;;;;;;;;;5023613;28;20439;-68
2023/05/30 03:34:07;;;;;;;3.40;3.10;;;;;;;;;;5023023;28;20442;-68
2023/05/30 03:36:33;;;;;;;4.70;2.80;;;;;;;;;;5023930;28;20874;-68
2023/05/30 03:38:59;;;;;;;5.90;3.50;;;;;;;;;;5022912;28;20927;-69
2023/05/30 03:41:25;;;;;;;4.00;3.03;;;;;;;;;;5023803;28;20450;-69
2023/05/30 03:43:51;;;;;;;3.07;2.60;;;;;;;;;;5023753;28;20451;-69
2023/05/30 03:46:19;;;;;;;3.40;3.10;;;;;;;;;;5022989;28;20510;-70
2023/05/30 03:48:46;;;;;;;4.40;2.83;;;;;;;;;;5023489;28;20486;-69
2023/05/30 03:51:12;;;;;;;2.80;2.70;;;;;;;;;;5023594;28;20424;-69
2023/05/30 03:53:38;;;;;;;7.40;4.00;;;;;;;;;;5023114;28;20479;-69
2023/05/30 03:56:05;;;;;;;2.70;2.60;;;;;;;;;;5023301;28;20486;-69
2023/05/30 03:58:30;;;;;;;5.37;3.60;;;;;;;;;;5023067;28;20958;-69
2023/05/30 04:01:00;;;;;;;3.80;3.50;;;;;;;;;;5023366;28;20415;-69
2023/05/30 04:03:28;;;;;;;4.00;2.97;;;;;;;;;;5025777;28;20504;-69
2023/05/30 04:05:55;;;;;;;4.80;3.47;;;;;;;;;;5027095;28;20431;-69
2023/05/30 04:08:22;;;;;;;4.33;2.87;;;;;;;;;;5026927;28;20466;-69
2023/05/30 04:10:48;;;;;;;3.30;3.00;;;;;;;;;;5026416;28;20451;-69
2023/05/30 04:13:14;;;;;;;5.33;3.80;;;;;;;;;;5026569;28;20552;-69
2023/05/30 04:15:41;;;;;;;6.87;3.20;;;;;;;;;;5026400;28;20431;-69
2023/05/30 04:18:07;;;;;;;2.00;2.00;;;;;;;;;;5026518;28;20419;-68
2023/05/30 04:20:34;;;;;;;4.17;3.37;;;;;;;;;;5026922;28;20502;-69
2023/05/30 04:23:00;;;;;;;2.83;2.60;;;;;;;;;;5026591;28;20415;-70
2023/05/30 04:25:26;;;;;;;3.93;3.37;;;;;;;;;;5026826;28;20817;-69
2023/05/30 04:27:54;;;;;;;3.47;2.80;;;;;;;;;;5025527;28;20443;-69
2023/05/30 04:30:20;;;;;;;2.87;2.70;;;;;;;;;;5032048;28;20438;-70
2023/05/30 04:32:46;;;;;;;4.40;3.00;;;;;;;;;;5024508;28;20437;-68
2023/05/30 04:35:15;;;;;;;5.73;2.60;;;;;;;;;;5026075;28;20466;-69
2023/05/30 04:37:44;;;;;;;3.70;3.43;;;;;;;;;;5025752;28;20447;-69
2023/05/30 04:40:13;;;;;;;3.57;3.30;;;;;;;;;;5026296;28;20435;-68
2023/05/30 04:42:43;;;;;;;3.53;3.23;;;;;;;;;;5026123;28;20431;-68
2023/05/30 04:45:14;;;;;;;4.10;3.70;;;;;;;;;;5025787;28;20439;-68
2023/05/30 04:47:41;;;;;;;6.87;3.10;;;;;;;;;;5025235;28;20474;-69
2023/05/30 04:50:09;;;;;;;3.10;2.60;;;;;;;;;;5026121;28;20609;-69
2023/05/30 04:52:35;;;;;;;6.93;3.50;;;;;;;;;;5026239;28;20596;-68
2023/05/30 04:55:01;;;;;;;4.40;3.13;;;;;;;;;;5025840;28;21814;-68
2023/05/30 04:57:27;;;;;;;8.03;2.90;;;;;;;;;;5025614;28;22235;-69
2023/05/30 04:59:53;;;;;;;6.00;2.70;;;;;;;;;;5026100;28;20519;-69
2023/05/30 05:02:19;;;;;;;4.47;3.27;;;;;;;;;;5025299;28;20501;-70
2023/05/30 05:04:45;;;;;;;3.10;2.87;;;;;;;;;;5024065;28;20427;-69
2023/05/30 05:07:11;;;;;;;3.77;3.43;;;;;;;;;;5026060;28;20518;-69
2023/05/30 05:09:37;;;;;;;2.40;2.30;;;;;;;;;;5025536;28;20491;-69
2023/05/30 05:12:03;;;;;;;2.70;2.60;;;;;;;;;;5025805;28;20439;-69
2023/05/30 05:14:29;;;;;;;2.97;2.70;;;;;;;;;;5024657;28;20471;-69
2023/05/30 05:16:55;;;;;;;3.37;3.07;;;;;;;;;;5040516;28;20438;-69
2023/05/30 05:19:21;;;;;;;3.77;2.70;;;;;;;;;;5040849;28;20423;-68
2023/05/30 05:21:47;;;;;;;4.83;3.60;;;;;;;;;;5025950;28;20446;-69
2023/05/30 05:24:13;;;;;;;6.87;4.53;;;;;;;;;;5025245;28;20815;-68
2023/05/30 05:26:39;;;;;;;4.83;2.77;;;;;;;;;;5025188;28;20809;-68
2023/05/30 05:29:05;;;;;;;18.17;3.37;;;;;;;;;;5025207;28;20849;-69
2023/05/30 05:31:33;;;;;;;4.90;3.30;;;;;;;;;;5024698;28;20793;-68
2023/05/30 05:33:59;;;;;;;2.70;2.53;;;;;;;;;;5025130;28;20463;-69
2023/05/30 05:36:25;;;;;;;8.77;3.50;;;;;;;;;;5025639;28;20420;-68
2023/05/30 05:38:51;;;;;;;4.30;2.60;;;;;;;;;;5025129;28;20435;-69
2023/05/30 05:41:17;;;;;;;4.40;3.07;;;;;;;;;;5024853;28;20862;-69
2023/05/30 05:43:43;;;;;;;9.23;3.27;;;;;;;;;;5024751;28;21198;-68
2023/05/30 05:46:09;;;;;;;3.53;3.30;;;;;;;;;;5025558;28;21017;-68
2023/05/30 05:48:34;;;;;;;7.70;3.63;;;;;;;;;;5024623;28;20986;-68
2023/05/30 05:51:00;;;;;;;7.03;2.90;;;;;;;;;;5023910;28;20516;-69
2023/05/30 05:53:28;;;;;;;3.10;2.90;;;;;;;;;;5025293;28;20443;-69
2023/05/30 05:55:55;;;;;;;3.73;3.00;;;;;;;;;;5039552;28;20493;-69
2023/05/30 05:58:21;;;;;;;3.00;2.80;;;;;;;;;;5024684;28;20448;-68
2023/05/30 06:00:47;;;;;;;5.77;3.17;;;;;;;;;;5024379;28;20458;-69
2023/05/30 06:03:13;;;;;;;3.17;3.03;;;;;;;;;;5024786;28;20443;-68
2023/05/30 06:05:39;;;;;;;4.00;2.97;;;;;;;;;;5024100;28;20480;-69
2023/05/30 06:08:05;;;;;;;8.50;3.10;;;;;;;;;;5023102;28;20439;-68
2023/05/30 06:10:31;;;;;;;6.40;3.23;;;;;;;;;;5023674;28;21313;-68
2023/05/30 06:12:57;;;;;;;2.70;2.60;;;;;;;;;;5024636;28;20465;-68
2023/05/30 06:15:23;;;;;;;3.23;2.90;;;;;;;;;;5023946;28;20423;-70
2023/05/30 06:17:49;;;;;;;6.47;2.83;;;;;;;;;;5023992;28;21117;-69
2023/05/30 06:20:15;;;;;;;2.90;2.63;;;;;;;;;;5023626;28;21057;-69
2023/05/30 06:22:41;;;;;;;2.73;2.63;;;;;;;;;;5024241;28;20443;-69
2023/05/30 06:25:07;;;;;;;2.83;2.63;;;;;;;;;;5023188;28;21001;-69
2023/05/30 06:27:33;;;;;;;2.60;2.40;;;;;;;;;;5024305;28;20430;-69
2023/05/30 06:29:59;;;;;;;3.67;3.20;;;;;;;;;;5024055;28;20860;-69
2023/05/30 06:32:25;;;;;;;2.53;2.20;;;;;;;;;;5022003;28;20495;-68
2023/05/30 06:34:51;;;;;;;3.70;3.00;;;;;;;;;;5024119;28;20761;-69
2023/05/30 06:37:17;;;;;;;3.97;3.37;;;;;;;;;;5024151;28;20416;-68
2023/05/30 06:39:43;;;;;;;6.33;2.50;;;;;;;;;;5023547;28;20959;-68
2023/05/30 06:42:10;;;;;;;3.07;2.80;;;;;;;;;;5021501;28;20961;-69
2023/05/30 06:44:36;;;;;;;3.23;2.80;;;;;;;;;;5024015;28;20448;-69
2023/05/30 06:47:03;;;;;;;3.23;2.87;;;;;;;;;;5031353;28;20474;-69
2023/05/30 06:49:29;;;;;;;2.50;2.27;;;;;;;;;;5030292;28;20579;-69
2023/05/30 06:51:55;;;;;;;6.10;3.07;;;;;;;;;;5026418;28;20442;-68
2023/05/30 06:54:22;;;;;;;7.77;3.40;;;;;;;;;;5037267;28;20423;-68
2023/05/30 06:56:49;;;;;;;5.03;3.77;;;;;;;;;;5034947;28;20434;-68
2023/05/30 06:59:15;;;;;;;5.83;3.13;;;;;;;;;;5037574;28;20542;-69
2023/05/30 07:01:41;;;;;;;3.70;2.37;;;;;;;;;;5034247;28;20439;-68
2023/05/30 07:04:07;;;;;;;5.27;2.67;;;;;;;;;;5034183;28;20485;-68
2023/05/30 07:06:33;;;;;;;2.97;2.87;;;;;;;;;;5019300;28;21277;-70
2023/05/30 07:08:59;;;;;;;3.17;2.87;;;;;;;;;;5033379;28;20500;-69
2023/05/30 07:11:26;;;;;;;3.03;2.93;;;;;;;;;;5038199;28;20830;-69
2023/05/30 07:13:52;;;;;;;2.70;2.50;;;;;;;;;;5037956;28;20434;-70
2023/05/30 07:16:18;;;;;;;2.53;2.43;;;;;;;;;;5038706;28;20430;-69
2023/05/30 07:18:44;;;;;;;3.37;2.67;;;;;;;;;;5037935;28;20794;-69
2023/05/30 07:21:10;;;;;;;3.47;3.17;;;;;;;;;;5038239;28;20423;-68
2023/05/30 07:23:36;;;;;;;2.97;2.77;;;;;;;;;;5038431;28;20426;-69
2023/05/30 07:26:02;;;;;;;6.13;4.73;;;;;;;;;;5037557;28;20423;-68
2023/05/30 07:28:27;;;;;;;3.83;3.50;;;;;;;;;;5036075;28;21009;-68
2023/05/30 07:30:53;;;;;;;5.40;3.37;;;;;;;;;;5036717;28;20446;-69
2023/05/30 07:33:19;;;;;;;3.53;3.10;;;;;;;;;;5036646;28;20433;-68
2023/05/30 07:35:45;;;;;;;5.43;3.10;;;;;;;;;;5034916;28;21009;-68
2023/05/30 07:38:11;;;;;;;8.23;3.10;;;;;;;;;;5030261;28;20439;-68
2023/05/30 07:40:37;;;;;;;4.07;3.27;;;;;;;;;;5026875;28;20509;-68
2023/05/30 07:43:04;;;;;;;3.77;3.47;;;;;;;;;;5027847;28;20784;-68
2023/05/30 07:45:30;;;;;;;9.73;2.67;;;;;;;;;;5026725;28;20438;-69
2023/05/30 07:47:56;;;;;;;6.43;2.93;;;;;;;;;;5026289;28;20439;-69
2023/05/30 07:50:22;;;;;;;3.87;3.43;;;;;;;;;;5027186;28;20461;-68
2023/05/30 07:52:48;;;;;;;3.40;3.10;;;;;;;;;;5027654;28;20411;-67
2023/05/30 07:55:14;;;;;;;8.43;3.63;;;;;;;;;;5033110;28;20450;-68
2023/05/30 07:57:40;;;;;;;3.33;3.23;;;;;;;;;;5027041;28;20558;-68
2023/05/30 08:00:08;;;;;;;3.20;3.10;;;;;;;;;;5027673;28;22046;-68
2023/05/30 08:02:34;;;;;;;3.97;3.50;;;;;;;;;;5039644;28;20512;-68
2023/05/30 08:05:00;;;;;;;3.50;2.93;;;;;;;;;;5040736;28;20460;-68
2023/05/30 08:07:28;;;;;;;5.80;3.37;;;;;;;;;;5041405;28;20530;-69
2023/05/30 08:09:53;;;;;;;4.60;3.37;;;;;;;;;;5040645;28;20854;-71
2023/05/30 08:12:22;;;;;;;5.87;2.83;;;;;;;;;;5041473;28;20960;-68
2023/05/30 08:14:47;;;;;;;3.10;2.97;;;;;;;;;;5049613;28;20434;-68
2023/05/30 08:17:16;;;;;;;3.70;3.40;;;;;;;;;;5038380;28;20488;-68
2023/05/30 08:19:42;;;;;;;6.77;2.23;;;;;;;;;;5026609;28;20447;-68
2023/05/30 08:22:10;;;;;;;5.50;3.80;;;;;;;;;;5026620;28;20428;-68
2023/05/30 08:24:36;;;;;;;6.50;3.30;;;;;;;;;;5025226;28;20481;-68
2023/05/30 08:27:03;;;;;;;4.03;3.73;;;;;;;;;;5025674;28;20446;-68
2023/05/30 08:29:29;;;;;;;10.40;3.40;;;;;;;;;;5025928;28;20494;-71
2023/05/30 08:31:55;;;;;;;6.23;2.63;;;;;;;;;;5028541;28;20443;-68
2023/05/30 08:34:24;;;;;;;8.30;3.07;;;;;;;;;;5024985;28;20582;-68
2023/05/30 08:36:52;;;;;;;2.37;2.27;;;;;;;;;;5026956;28;20807;-68
2023/05/30 08:39:18;;;;;;;8.80;3.53;;;;;;;;;;5040610;28;20461;-68
2023/05/30 08:41:44;;;;;;;9.63;3.07;;;;;;;;;;5036831;28;20447;-68
2023/05/30 08:44:11;;;;;;;4.47;3.30;;;;;;;;;;5026611;28;20979;-68
2023/05/30 08:46:42;;;;;;;3.93;3.60;;;;;;;;;;5025583;28;20561;-68
2023/05/30 08:49:11;;;;;;;3.20;3.00;;;;;;;;;;5024560;28;20577;-68
2023/05/30 08:51:38;;;;;;;3.17;3.07;;;;;;;;;;5026347;28;20431;-69
2023/05/30 08:54:06;;;;;;;9.20;4.70;;;;;;;;;;5026653;28;21225;-68
2023/05/30 08:56:37;;;;;;;4.27;3.97;;;;;;;;;;5024544;28;20443;-69
2023/05/30 08:59:05;;;;;;;3.23;2.50;;;;;;;;;;5031711;28;20439;-68
2023/05/30 09:01:31;;;;;;;9.93;3.07;;;;;;;;;;5026841;28;20790;-69
2023/05/30 09:03:57;;;;;;;4.57;3.03;;;;;;;;;;5037890;28;20824;-69
2023/05/30 09:06:25;;;;;;;7.20;2.93;;;;;;;;;;5040938;28;20505;-69
2023/05/30 09:08:51;;;;;;;4.23;3.13;;;;;;;;;;5038435;28;20555;-69
2023/05/30 09:11:18;;;;;;;10.17;4.20;;;;;;;;;;5039927;28;20870;-69
2023/05/30 09:13:45;;;;;;;4.33;3.70;;;;;;;;;;5040203;28;20513;-69
2023/05/30 09:16:12;;;;;;;7.30;2.70;;;;;;;;;;5039762;28;20934;-70
2023/05/30 09:18:38;;;;;;;5.43;3.30;;;;;;;;;;5039728;28;20962;-69
2023/05/30 09:21:05;;;;;;;11.87;3.83;;;;;;;;;;5040415;28;20184;-69
2023/05/30 09:23:31;;;;;;;3.60;3.30;;;;;;;;;;5038288;28;21053;-69
2023/05/30 09:25:59;;;;;;;6.60;3.43;;;;;;;;;;5038958;28;20584;-69
2023/05/30 09:28:26;;;;;;;5.53;3.87;;;;;;;;;;5053883;28;20545;-64
2023/05/30 09:30:58;;;;;;;4.50;3.43;;;;;;;;;;5040306;28;20481;-68
2023/05/30 09:33:24;;;;;;;3.27;3.00;;;;;;;;;;5039467;28;20441;-69
2023/05/30 09:35:53;;;;;;;6.27;3.60;;;;;;;;;;5039965;28;20434;-69
2023/05/30 09:38:22;;;;;;;5.90;3.13;;;;;;;;;;5039864;28;20810;-69
2023/05/30 09:40:50;;;;;;;5.57;2.73;;;;;;;;;;5038558;28;20962;-69
2023/05/30 09:43:29;;;;;;;4.13;2.80;;;;;;;;;;5039803;28;20488;-69
2023/05/30 09:45:55;;;;;;;2.90;2.33;;;;;;;;;;5037390;28;20469;-70
2023/05/30 09:48:21;;;;;;;7.70;3.97;;;;;;;;;;5037353;28;20540;-69
2023/05/30 09:50:48;;;;;;;3.77;3.30;;;;;;;;;;5039061;28;20541;-71
2023/05/30 09:53:14;;;;;;;5.93;4.23;;;;;;;;;;5048727;28;20469;-69
2023/05/30 09:55:40;;;;;;;3.20;2.87;;;;;;;;;;5038012;28;20481;-69
2023/05/30 09:58:06;;;;;;;5.30;3.40;;;;;;;;;;5039039;28;20419;-69
2023/05/30 10:00:32;;;;;;;8.93;3.80;;;;;;;;;;5038994;28;20951;-69
2023/05/30 10:02:58;;;;;;;3.30;3.03;;;;;;;;;;5039123;28;20422;-69
2023/05/30 10:05:26;;;;;;;8.70;3.67;;;;;;;;;;5039580;28;20432;-68
2023/05/30 10:07:55;;;;;;;4.43;3.80;;;;;;;;;;5039559;28;20798;-68
2023/05/30 10:10:22;;;;;;;6.80;3.30;;;;;;;;;;5038744;28;20491;-69
2023/05/30 10:12:49;;;;;;;11.37;2.93;;;;;;;;;;5037596;28;20501;-70
2023/05/30 10:15:15;;;;;;;5.07;3.47;;;;;;;;;;5039022;28;20457;-72
2023/05/30 10:18:01;;;;;;;4.00;3.60;;;;;;;;;;5039063;28;20442;-70
2023/05/30 10:20:27;;;;;;;5.43;3.23;;;;;;;;;;5037277;28;20434;-70
2023/05/30 10:22:54;;;;;;;7.23;3.17;;;;;;;;;;5038546;28;20478;-68
2023/05/30 10:25:21;;;;;;;13.40;3.57;;;;;;;;;;5037112;28;21012;-68
2023/05/30 10:27:48;;;;;;;6.83;3.67;;;;;;;;;;5037052;28;20476;-67
2023/05/30 10:30:15;;;;;;;3.50;3.30;;;;;;;;;;5037320;28;20989;-68
2023/05/30 10:32:43;;;;;;;3.57;2.80;;;;;;;;;;5037340;28;20438;-68
2023/05/30 10:35:13;;;;;;;3.80;3.20;;;;;;;;;;5038397;28;20423;-68
2023/05/30 10:37:39;;;;;;;3.80;3.53;;;;;;;;;;5037437;28;20445;-68
2023/05/30 10:40:06;;;;;;;5.53;3.77;;;;;;;;;;5037639;28;20446;-68
2023/05/30 10:42:38;;;;;;;3.80;3.17;;;;;;;;;;5037530;28;20426;-67
2023/05/30 10:45:11;;;;;;;9.83;5.13;;;;;;;;;;5038011;28;20445;-68
2023/05/30 10:47:56;;;;;;;5.17;4.53;;;;;;;;;;5037529;28;20477;-68
2023/05/30 10:50:38;;;;;;;4.47;3.57;;;;;;;;;;5037993;28;20504;-69
2023/05/30 10:53:20;;;;;;;6.30;3.73;;;;;;;;;;5038365;28;20423;-69
2023/05/30 10:55:47;;;;;;;3.27;3.07;;;;;;;;;;5037608;28;20422;-69
2023/05/30 10:58:32;;;;;;;14.23;3.20;;;;;;;;;;5037790;28;20418;-70
2023/05/30 11:01:18;;;;;;;5.57;3.73;;;;;;;;;;5037221;28;20442;-68
2023/05/30 11:03:46;;;;;;;6.87;3.27;;;;;;;;;;5037972;28;20511;-69
2023/05/30 11:06:12;;;;;;;5.73;3.30;;;;;;;;;;5038011;28;20875;-68
2023/05/30 11:08:40;;;;;;;4.47;3.00;;;;;;;;;;5038085;28;20505;-69
2023/05/30 11:11:16;;;;;;;3.80;3.50;;;;;;;;;;5037745;28;20427;-69
2023/05/30 11:13:45;;;;;;;3.17;3.00;;;;;;;;;;5037295;28;20432;-68
2023/05/30 11:16:21;;;;;;;9.73;3.70;;;;;;;;;;5037938;28;20427;-69
2023/05/30 11:18:50;;;;;;;8.27;3.47;;;;;;;;;;5037498;28;20429;-68
2023/05/30 11:21:16;;;;;;;3.20;3.03;;;;;;;;;;5037893;28;20861;-68
2023/05/30 11:24:01;;;;;;;3.70;3.40;;;;;;;;;;5038147;28;20425;-68
2023/05/30 11:26:45;;;;;;;3.60;3.27;;;;;;;;;;5037929;28;20433;-68
2023/05/30 11:29:30;;;;;;;10.73;4.27;;;;;;;;;;5037106;28;20478;-68
2023/05/30 11:31:56;;;;;;;4.87;3.53;;;;;;;;;;5037335;28;20422;-68
2023/05/30 11:34:23;;;;;;;9.93;3.37;;;;;;;;;;5038047;28;20435;-69
2023/05/30 11:36:49;;;;;;;4.70;4.10;;;;;;;;;;5036652;28;20753;-68
2023/05/30 11:39:15;;;;;;;7.30;3.67;;;;;;;;;;5036472;28;20696;-68
2023/05/30 11:41:42;;;;;;;5.70;3.50;;;;;;;;;;5037621;28;20429;-68
2023/05/30 11:44:10;;;;;;;4.00;3.30;;;;;;;;;;5037495;28;20833;-68
2023/05/30 11:46:36;;;;;;;13.13;4.17;;;;;;;;;;5037413;28;20511;-68
2023/05/30 11:49:06;;;;;;;18.43;3.87;;;;;;;;;;5037186;28;20474;-69
2023/05/30 11:51:32;;;;;;;4.53;4.10;;;;;;;;;;5035830;28;21636;-69
2023/05/30 11:53:58;;;;;;;11.23;4.30;;;;;;;;;;5037656;28;20527;-69
2023/05/30 11:56:29;;;;;;;13.93;3.67;;;;;;;;;;5037955;28;20414;-69
2023/05/30 11:58:56;;;;;;;4.97;3.77;;;;;;;;;;5037500;28;20426;-70
2023/05/30 12:01:26;;;;;;;3.80;3.50;;;;;;;;;;5037233;28;20433;-68
2023/05/30 12:03:54;;;;;;;3.17;2.87;;;;;;;;;;5038163;28;20435;-69
2023/05/30 12:06:20;;;;;;;4.40;3.50;;;;;;;;;;5037039;28;20410;-69
2023/05/30 12:08:47;;;;;;;2.90;2.60;;;;;;;;;;5037984;28;20482;-69
2023/05/30 12:11:13;;;;;;;10.33;3.10;;;;;;;;;;5036694;28;20426;-69
2023/05/30 12:13:40;;;;;;;11.53;3.27;;;;;;;;;;5037308;28;20479;-69
2023/05/30 12:16:06;;;;;;;3.30;3.10;;;;;;;;;;5047198;28;20422;-69
2023/05/30 12:18:35;;;;;;;4.70;3.63;;;;;;;;;;5037483;28;20536;-72
2023/05/30 12:21:01;;;;;;;10.90;2.80;;;;;;;;;;5037388;28;22038;-69
2023/05/30 12:23:27;;;;;;;4.27;3.27;;;;;;;;;;5037804;28;21485;-68
2023/05/30 12:25:53;;;;;;;6.43;2.57;;;;;;;;;;5041771;28;20785;-68
2023/05/30 12:28:20;;;;;;;3.60;2.70;;;;;;;;;;5037538;28;20441;-69
2023/05/30 12:30:46;;;;;;;2.80;2.30;;;;;;;;;;5038217;28;21182;-69
2023/05/30 12:33:19;;;;;;;5.00;3.00;;;;;;;;;;5040817;28;20923;-69
2023/05/30 12:35:45;;;;;;;2.80;2.60;;;;;;;;;;5038713;28;20451;-68
2023/05/30 12:38:12;;;;;;;7.30;3.17;;;;;;;;;;5040903;28;20896;-69
2023/05/30 12:40:43;;;;;;;1.67;1.67;;;;;;;;;;5035566;28;20504;-69
2023/05/30 12:43:09;;;;;;;13.27;3.43;;;;;;;;;;5026619;28;20473;-68
2023/05/30 12:45:35;;;;;;;4.50;2.83;;;;;;;;;;5026522;28;20454;-68
2023/05/30 12:48:01;;;;;;;2.47;2.43;;;;;;;;;;5036708;28;20451;-69
2023/05/30 12:50:27;;;;;;;5.70;3.30;;;;;;;;;;5040124;28;20504;-68
2023/05/30 12:52:53;;;;;;;7.43;3.27;;;;;;;;;;5050411;28;20451;-69
2023/05/30 12:55:19;;;;;;;2.90;2.27;;;;;;;;;;5039635;28;20437;-69
2023/05/30 12:57:45;;;;;;;3.67;2.70;;;;;;;;;;5040528;28;20925;-69
2023/05/30 13:00:11;;;;;;;4.60;3.00;;;;;;;;;;5049892;28;20438;-68
2023/05/30 13:02:37;;;;;;;6.70;3.90;;;;;;;;;;5040844;28;20501;-69
2023/05/30 13:05:03;;;;;;;4.87;3.37;;;;;;;;;;5039957;28;20521;-68
2023/05/30 13:07:29;;;;;;;2.83;2.60;;;;;;;;;;5040534;28;20441;-68
2023/05/30 13:09:55;;;;;;;4.30;3.27;;;;;;;;;;5040928;28;21766;-68
2023/05/30 13:12:21;;;;;;;3.80;3.47;;;;;;;;;;5040849;28;20782;-69
2023/05/30 13:14:47;;;;;;;5.50;3.07;;;;;;;;;;5039284;28;20430;-70
2023/05/30 13:17:13;;;;;;;3.40;2.50;;;;;;;;;;5039767;28;20556;-68
2023/05/30 13:19:40;;;;;;;2.57;2.47;;;;;;;;;;5040247;28;20434;-68
2023/05/30 13:22:07;;;;;;;2.87;2.70;;;;;;;;;;5040031;28;20422;-68
2023/05/30 13:24:33;;;;;;;3.07;2.87;;;;;;;;;;5039591;28;20424;-68
2023/05/30 13:27:00;;;;;;;3.10;2.73;;;;;;;;;;5039308;28;20450;-68
2023/05/30 13:29:26;;;;;;;2.83;2.63;;;;;;;;;;5040103;28;20535;-68
2023/05/30 13:31:52;;;;;;;5.90;3.40;;;;;;;;;;5039955;28;20410;-69
2023/05/30 13:34:18;;;;;;;2.80;2.30;;;;;;;;;;5038706;28;20480;-69
2023/05/30 13:36:44;;;;;;;3.40;3.30;;;;;;;;;;5038551;28;20431;-67
2023/05/30 13:39:10;;;;;;;3.03;2.93;;;;;;;;;;5039435;28;21688;-70
2023/05/30 13:41:36;;;;;;;9.90;2.87;;;;;;;;;;5038894;28;20519;-70
2023/05/30 13:44:03;;;;;;;3.07;2.87;;;;;;;;;;5038192;28;21080;-69
2023/05/30 13:46:29;;;;;;;4.20;3.20;;;;;;;;;;5038335;28;20474;-69
2023/05/30 13:48:55;;;;;;;3.20;3.00;;;;;;;;;;5037962;28;20841;-69
2023/05/30 13:51:21;;;;;;;3.80;3.20;;;;;;;;;;5039857;28;20435;-67
2023/05/30 13:53:48;;;;;;;4.03;2.80;;;;;;;;;;5038127;28;20495;-70
2023/05/30 13:56:15;;;;;;;3.00;2.67;;;;;;;;;;5039661;28;20430;-69
2023/05/30 13:58:41;;;;;;;4.30;3.77;;;;;;;;;;5039210;28;20886;-69
2023/05/30 14:01:07;;;;;;;3.07;2.40;;;;;;;;;;5038283;28;21013;-69
2023/05/30 14:03:34;;;;;;;8.73;3.53;;;;;;;;;;5038736;28;20430;-69
2023/05/30 14:06:04;;;;;;;3.57;3.27;;;;;;;;;;5053539;28;20458;-68
2023/05/30 14:08:31;;;;;;;6.03;3.27;;;;;;;;;;5038314;28;20840;-68
2023/05/30 14:10:57;;;;;;;1.97;1.80;;;;;;;;;;5038350;28;20435;-68
2023/05/30 14:13:24;;;;;;;5.90;2.87;;;;;;;;;;5026115;28;21299;-69
2023/05/30 14:15:50;;;;;;;3.00;2.90;;;;;;;;;;5025115;28;20947;-70
2023/05/30 14:18:16;;;;;;;3.37;2.63;;;;;;;;;;5024428;28;20423;-68
2023/05/30 14:20:42;;;;;;;5.13;3.33;;;;;;;;;;5023956;28;20845;-68
2023/05/30 14:23:08;;;;;;;4.93;2.40;;;;;;;;;;5026683;28;20542;-69
2023/05/30 14:25:34;;;;;;;5.13;3.83;;;;;;;;;;5023848;28;20808;-68
2023/05/30 14:28:00;;;;;;;6.83;2.90;;;;;;;;;;5038591;28;20423;-68
2023/05/30 14:30:26;;;;;;;4.10;3.03;;;;;;;;;;5039117;28;21638;-68
2023/05/30 14:32:53;;;;;;;5.33;2.87;;;;;;;;;;5038997;28;20418;-69
2023/05/30 14:35:19;;;;;;;2.30;2.20;;;;;;;;;;5037793;28;20418;-68
2023/05/30 14:37:45;;;;;;;2.47;2.40;;;;;;;;;;5038087;28;20547;-68
2023/05/30 14:40:13;;;;;;;2.60;2.40;;;;;;;;;;5037537;28;20517;-68
2023/05/30 14:42:39;;;;;;;16.90;3.00;;;;;;;;;;5037839;28;20934;-68